createdAt,value
2023-02-09T00:00:25.618Z,35.98
2023-02-09T00:01:47.450Z,35.87
2023-02-09T00:02:49.426Z,35.82
2023-02-09T00:03:52.567Z,37.17
2023-02-09T00:04:54.861Z,35.77
2023-02-09T00:06:00.391Z,35.03
2023-02-09T00:07:02.922Z,35.89
2023-02-09T00:08:04.786Z,40.81
2023-02-09T00:09:06.636Z,44.88
2023-02-09T00:10:08.899Z,39.88
2023-02-09T00:11:20.864Z,39.58
2023-02-09T00:12:41.696Z,38.77
2023-02-09T00:13:44.553Z,39.43
2023-02-09T00:14:46.359Z,37.91
2023-02-09T00:15:55.341Z,40.64
2023-02-09T00:16:57.154Z,35.84
2023-02-09T00:17:59.011Z,36.57
2023-02-09T00:19:01.056Z,37.14
2023-02-09T00:20:08.149Z,36.59
2023-02-09T00:21:11.918Z,36.96
2023-02-09T00:22:15.020Z,37.54
2023-02-09T00:23:16.868Z,38.71
2023-02-09T00:24:19.042Z,37.86
2023-02-09T00:25:20.867Z,37.03
2023-02-09T00:26:22.856Z,38.76
2023-02-09T00:27:26.426Z,38.52
2023-02-09T00:28:28.583Z,39.83
2023-02-09T00:29:30.592Z,42.31
2023-02-09T00:30:32.556Z,41.89
2023-02-09T00:31:35.898Z,39.44
2023-02-09T00:32:39.169Z,40.02
2023-02-09T00:33:41.484Z,39.29
2023-02-09T00:34:43.844Z,39.72
2023-02-09T00:35:45.852Z,39.23
2023-02-09T00:36:47.715Z,51.44
2023-02-09T00:37:49.634Z,46.96
2023-02-09T00:38:51.485Z,53.56
2023-02-09T00:39:53.372Z,54.38
2023-02-09T00:40:55.203Z,56.27
2023-02-09T00:42:06.464Z,53.18
2023-02-09T00:43:09.826Z,49.09
2023-02-09T00:44:12.608Z,52.15
2023-02-09T00:45:14.663Z,48.03
2023-02-09T00:46:16.460Z,46.74
2023-02-09T00:47:18.927Z,46.93
2023-02-09T00:48:21.589Z,44.96
2023-02-09T00:49:24.033Z,43.23
2023-02-09T00:50:28.319Z,42.97
2023-02-09T00:51:30.411Z,46.59
2023-02-09T00:52:33.404Z,50.66
2023-02-09T00:53:35.373Z,51.49
2023-02-09T00:54:37.768Z,49.24
2023-02-09T00:55:39.735Z,49.93
2023-02-09T00:56:42.205Z,47.02
2023-02-09T00:57:44.481Z,43.06
2023-02-09T00:58:46.498Z,44.49
2023-02-09T00:59:48.361Z,43.75
2023-02-09T01:00:50.317Z,43.27
2023-02-09T01:01:52.451Z,44.28
2023-02-09T01:02:56.996Z,42.88
2023-02-09T01:03:58.814Z,41.99
2023-02-09T01:05:01.218Z,44.29
2023-02-09T01:06:03.360Z,47.11
2023-02-09T01:07:05.162Z,46.64
2023-02-09T01:08:07.437Z,44.31
2023-02-09T01:09:09.582Z,51.42
2023-02-09T01:10:13.221Z,52.07
2023-02-09T01:11:16.490Z,47.06
2023-02-09T01:12:18.820Z,45.78
2023-02-09T01:13:20.778Z,47.30
2023-02-09T01:14:22.633Z,47.37
2023-02-09T01:15:24.564Z,52.97
2023-02-09T01:16:31.694Z,54.71
2023-02-09T01:17:34.072Z,53.56
2023-02-09T01:18:36.774Z,52.32
2023-02-09T01:19:38.617Z,54.45
2023-02-09T01:20:42.092Z,53.63
2023-02-09T01:21:47.685Z,50.67
2023-02-09T01:22:50.090Z,49.61
2023-02-09T01:23:52.154Z,50.75
2023-02-09T01:24:54.016Z,50.62
2023-02-09T01:26:08.112Z,49.94
2023-02-09T01:27:09.923Z,49.54
2023-02-09T01:28:12.218Z,49.20
2023-02-09T01:29:17.708Z,44.56
2023-02-09T01:30:19.732Z,46.11
2023-02-09T01:31:26.392Z,46.23
2023-02-09T01:32:28.636Z,45.58
2023-02-09T01:33:31.724Z,44.44
2023-02-09T01:34:33.708Z,45.78
2023-02-09T01:35:35.647Z,45.76
2023-02-09T01:36:37.442Z,46.79
2023-02-09T01:37:39.563Z,48.38
2023-02-09T01:38:43.203Z,46.26
2023-02-09T01:39:45.118Z,47.36
2023-02-09T01:40:49.301Z,47.47
2023-02-09T01:41:51.337Z,46.21
2023-02-09T01:42:53.302Z,46.03
2023-02-09T01:44:07.965Z,45.17
2023-02-09T01:45:43.950Z,44.42
2023-02-09T01:46:45.805Z,44.21
2023-02-09T01:47:56.340Z,46.45
2023-02-09T01:49:27.937Z,48.48
2023-02-09T01:50:36.447Z,56.43
2023-02-09T01:51:55.665Z,67.59
2023-02-09T01:52:57.937Z,72.99
2023-02-09T01:54:04.920Z,73.82
2023-02-09T01:55:17.532Z,70.60
2023-02-09T01:56:28.681Z,63.65
2023-02-09T01:57:48.195Z,62.61
2023-02-09T01:58:50.640Z,58.09
2023-02-09T02:00:00.738Z,59.10
2023-02-09T02:01:04.181Z,56.87
2023-02-09T02:02:08.759Z,55.17
2023-02-09T02:03:18.268Z,52.13
2023-02-09T02:04:22.676Z,53.37
2023-02-09T02:05:26.136Z,53.33
2023-02-09T02:06:28.702Z,50.49
2023-02-09T02:07:44.145Z,49.41
2023-02-09T02:08:56.636Z,49.47
2023-02-09T02:09:58.512Z,46.20
2023-02-09T02:11:01.594Z,45.63
2023-02-09T02:12:05.328Z,46.09
2023-02-09T02:13:07.196Z,47.04
2023-02-09T02:14:35.599Z,46.22
2023-02-09T02:16:19.690Z,45.58
2023-02-09T02:17:43.783Z,44.24
2023-02-09T02:19:23.905Z,45.31
2023-02-09T02:20:57.369Z,47.21
2023-02-09T02:22:46.901Z,47.68
2023-02-09T02:24:21.881Z,47.71
2023-02-09T02:25:23.625Z,49.64
2023-02-09T02:26:45.797Z,52.59
2023-02-09T02:27:56.517Z,54.23
2023-02-09T02:29:04.666Z,59.92
2023-02-09T02:30:20.342Z,58.42
2023-02-09T02:31:36.436Z,54.37
2023-02-09T02:33:07.294Z,53.23
2023-02-09T02:34:26.800Z,52.16
2023-02-09T02:35:54.777Z,46.57
2023-02-09T02:37:16.562Z,52.12
2023-02-09T02:38:24.597Z,50.18
2023-02-09T02:39:56.989Z,51.15
2023-02-09T02:41:20.682Z,51.88
2023-02-09T02:42:51.671Z,49.34
2023-02-09T02:44:12.641Z,50.79
2023-02-09T02:45:34.205Z,48.15
2023-02-09T02:46:45.352Z,50.74
2023-02-09T02:47:57.498Z,50.43
2023-02-09T02:49:10.689Z,51.04
2023-02-09T02:50:22.401Z,51.48
2023-02-09T02:51:53.728Z,50.85
2023-02-09T02:53:02.929Z,49.54
2023-02-09T02:54:11.546Z,49.92
2023-02-09T02:55:22.116Z,49.59
2023-02-09T02:56:36.665Z,50.70
2023-02-09T02:57:45.682Z,53.17
2023-02-09T02:58:51.121Z,53.32
2023-02-09T03:00:03.184Z,52.29
2023-02-09T03:01:13.181Z,51.65
2023-02-09T03:02:26.356Z,51.13
2023-02-09T03:03:37.611Z,49.38
2023-02-09T03:04:41.444Z,48.23
2023-02-09T03:05:45.497Z,48.37
2023-02-09T03:06:47.716Z,48.72
2023-02-09T03:07:50.029Z,49.69
2023-02-09T03:08:57.793Z,52.96
2023-02-09T03:10:01.016Z,54.05
2023-02-09T03:11:05.111Z,54.41
2023-02-09T03:12:25.766Z,58.48
2023-02-09T03:13:54.719Z,62.84
2023-02-09T03:15:15.801Z,64.11
2023-02-09T03:16:29.437Z,62.73
2023-02-09T03:17:54.646Z,61.09
2023-02-09T03:19:06.890Z,64.48
2023-02-09T03:20:28.303Z,62.65
2023-02-09T03:22:02.916Z,60.59
2023-02-09T03:23:13.335Z,55.61
2023-02-09T03:24:29.837Z,52.30
2023-02-09T03:25:38.488Z,49.77
2023-02-09T03:26:55.507Z,48.05
2023-02-09T03:28:22.741Z,48.53
2023-02-09T03:29:28.788Z,47.99
2023-02-09T03:30:33.802Z,47.96
2023-02-09T03:31:37.485Z,45.17
2023-02-09T03:32:42.187Z,47.04
2023-02-09T03:33:44.541Z,46.63
2023-02-09T03:34:46.522Z,46.74
2023-02-09T03:35:56.433Z,46.05
2023-02-09T03:36:58.664Z,47.06
2023-02-09T03:38:01.644Z,46.73
2023-02-09T03:39:04.007Z,45.47
2023-02-09T03:40:06.713Z,45.12
2023-02-09T03:41:08.851Z,43.60
2023-02-09T03:42:10.954Z,45.47
2023-02-09T03:43:13.797Z,43.75
2023-02-09T03:44:28.369Z,44.11
2023-02-09T03:45:30.369Z,43.43
2023-02-09T03:46:33.686Z,45.03
2023-02-09T03:47:35.562Z,45.46
2023-02-09T03:48:38.484Z,43.70
2023-02-09T03:49:42.520Z,42.10
2023-02-09T03:50:44.863Z,45.95
2023-02-09T03:51:46.996Z,45.43
2023-02-09T03:52:48.819Z,46.14
2023-02-09T03:53:50.762Z,45.68
2023-02-09T03:54:52.645Z,46.68
2023-02-09T03:55:54.554Z,46.73
2023-02-09T03:56:57.862Z,43.65
2023-02-09T03:58:00.561Z,43.54
2023-02-09T03:59:02.553Z,45.63
2023-02-09T04:00:05.296Z,43.35
2023-02-09T04:01:13.710Z,41.98
2023-02-09T04:02:16.009Z,44.45
2023-02-09T04:03:17.928Z,42.90
2023-02-09T04:04:20.922Z,45.02
2023-02-09T04:05:23.104Z,47.10
2023-02-09T04:06:25.363Z,45.18
2023-02-09T04:07:27.828Z,46.01
2023-02-09T04:08:30.139Z,46.70
2023-02-09T04:09:32.125Z,45.81
2023-02-09T04:10:33.971Z,47.14
2023-02-09T04:11:35.738Z,48.02
2023-02-09T04:12:37.618Z,49.35
2023-02-09T04:13:39.457Z,47.42
2023-02-09T04:14:41.248Z,48.18
2023-02-09T04:15:43.272Z,47.11
2023-02-09T04:16:45.300Z,46.94
2023-02-09T04:17:49.396Z,47.37
2023-02-09T04:18:53.020Z,45.63
2023-02-09T04:19:54.808Z,46.97
2023-02-09T04:20:56.742Z,46.96
2023-02-09T04:21:59.083Z,47.87
2023-02-09T04:23:03.719Z,48.43
2023-02-09T04:24:06.423Z,49.34
2023-02-09T04:25:08.418Z,47.62
2023-02-09T04:26:10.312Z,48.37
2023-02-09T04:27:12.179Z,49.56
2023-02-09T04:28:14.037Z,48.35
2023-02-09T04:29:16.255Z,46.40
2023-02-09T04:30:18.442Z,46.79
2023-02-09T04:31:20.704Z,48.80
2023-02-09T04:32:22.832Z,46.87
2023-02-09T04:33:25.637Z,46.00
2023-02-09T04:34:27.816Z,44.73
2023-02-09T04:35:29.712Z,46.61
2023-02-09T04:36:31.667Z,44.92
2023-02-09T04:37:33.540Z,45.36
2023-02-09T04:38:36.629Z,44.86
2023-02-09T04:39:38.442Z,43.93
2023-02-09T04:40:40.419Z,42.76
2023-02-09T04:41:42.579Z,43.81
2023-02-09T04:42:46.141Z,45.87
2023-02-09T04:43:48.595Z,46.17
2023-02-09T04:44:50.667Z,47.44
2023-02-09T04:45:52.995Z,50.51
2023-02-09T04:46:55.219Z,48.17
2023-02-09T04:47:57.158Z,48.29
2023-02-09T04:48:59.040Z,46.80
2023-02-09T04:50:01.018Z,46.96
2023-02-09T04:51:02.888Z,45.50
2023-02-09T04:52:04.889Z,44.64
2023-02-09T04:53:06.952Z,45.07
2023-02-09T04:54:08.883Z,46.79
2023-02-09T04:55:10.706Z,45.55
2023-02-09T04:56:15.557Z,44.43
2023-02-09T04:57:36.358Z,44.31
2023-02-09T04:58:57.034Z,44.81
2023-02-09T04:59:59.110Z,47.10
2023-02-09T05:01:03.185Z,46.65
2023-02-09T05:02:05.404Z,47.62
2023-02-09T05:03:08.110Z,49.09
2023-02-09T05:04:10.180Z,46.38
2023-02-09T05:05:12.239Z,46.56
2023-02-09T05:06:14.614Z,45.27
2023-02-09T05:07:16.879Z,43.56
2023-02-09T05:08:18.848Z,43.98
2023-02-09T05:09:21.011Z,45.52
2023-02-09T05:10:23.241Z,46.27
2023-02-09T05:11:25.735Z,45.52
2023-02-09T05:12:27.738Z,45.72
2023-02-09T05:13:29.835Z,45.06
2023-02-09T05:14:31.757Z,46.90
2023-02-09T05:15:33.624Z,47.78
2023-02-09T05:16:37.049Z,47.45
2023-02-09T05:17:40.320Z,48.22
2023-02-09T05:18:42.153Z,47.83
2023-02-09T05:19:44.037Z,48.22
2023-02-09T05:20:47.973Z,49.46
2023-02-09T05:21:49.865Z,49.42
2023-02-09T05:22:51.680Z,45.54
2023-02-09T05:23:53.667Z,44.57
2023-02-09T05:24:55.611Z,44.07
2023-02-09T05:25:57.861Z,47.41
2023-02-09T05:26:59.879Z,47.57
2023-02-09T05:28:02.220Z,50.68
2023-02-09T05:29:04.704Z,48.92
2023-02-09T05:30:07.113Z,49.09
2023-02-09T05:31:09.116Z,48.47
2023-02-09T05:32:11.268Z,48.64
2023-02-09T05:33:13.271Z,48.35
2023-02-09T05:34:15.042Z,46.14
2023-02-09T05:35:17.410Z,48.94
2023-02-09T05:36:19.182Z,48.31
2023-02-09T05:37:21.268Z,46.89
2023-02-09T05:38:23.763Z,47.97
2023-02-09T05:39:25.505Z,47.97
2023-02-09T05:40:27.469Z,45.04
2023-02-09T05:41:47.917Z,46.63
2023-02-09T05:42:49.882Z,43.85
2023-02-09T05:43:51.704Z,45.49
2023-02-09T05:44:53.596Z,55.07
2023-02-09T05:45:55.669Z,58.21
2023-02-09T05:46:57.642Z,82.42
2023-02-09T05:47:59.524Z,71.71
2023-02-09T05:49:01.527Z,63.41
2023-02-09T05:50:04.355Z,55.22
2023-02-09T05:51:06.665Z,50.01
2023-02-09T05:52:09.566Z,46.74
2023-02-09T05:53:12.901Z,48.24
2023-02-09T05:54:15.194Z,47.82
2023-02-09T05:55:17.573Z,48.76
2023-02-09T05:56:20.423Z,48.43
2023-02-09T05:57:22.322Z,48.22
2023-02-09T05:58:24.250Z,47.57
2023-02-09T05:59:26.249Z,47.77
2023-02-09T06:00:29.909Z,49.40
2023-02-09T06:01:31.980Z,49.37
2023-02-09T06:02:33.771Z,50.99
2023-02-09T06:03:35.671Z,51.23
2023-02-09T06:04:37.948Z,50.48
2023-02-09T06:05:39.935Z,50.93
2023-02-09T06:06:42.475Z,49.12
2023-02-09T06:07:44.316Z,50.27
2023-02-09T06:08:46.176Z,48.19
2023-02-09T06:09:47.993Z,49.27
2023-02-09T06:10:49.766Z,50.09
2023-02-09T06:11:52.798Z,49.78
2023-02-09T06:12:54.568Z,48.98
2023-02-09T06:13:56.340Z,49.21
2023-02-09T06:14:58.215Z,47.65
2023-02-09T06:16:00.282Z,47.58
2023-02-09T06:17:02.518Z,49.15
2023-02-09T06:18:04.643Z,50.12
2023-02-09T06:19:07.306Z,51.84
2023-02-09T06:20:09.940Z,50.33
2023-02-09T06:21:12.226Z,51.17
2023-02-09T06:22:14.124Z,52.44
2023-02-09T06:23:16.010Z,57.35
2023-02-09T06:24:18.299Z,55.91
2023-02-09T06:25:20.366Z,54.77
2023-02-09T06:26:22.299Z,55.49
2023-02-09T06:27:24.185Z,54.67
2023-02-09T06:28:26.167Z,55.66
2023-02-09T06:29:28.057Z,56.77
2023-02-09T06:30:30.084Z,52.34
2023-02-09T06:31:33.608Z,50.47
2023-02-09T06:32:35.945Z,54.16
2023-02-09T06:33:39.428Z,53.61
2023-02-09T06:34:41.364Z,53.64
2023-02-09T06:35:43.690Z,51.21
2023-02-09T06:36:45.615Z,50.81
2023-02-09T06:37:47.490Z,52.92
2023-02-09T06:38:49.434Z,55.19
2023-02-09T06:39:51.245Z,54.91
2023-02-09T06:40:53.152Z,57.35
2023-02-09T06:41:55.404Z,60.90
2023-02-09T06:42:57.536Z,58.84
2023-02-09T06:43:59.475Z,58.06
2023-02-09T06:45:01.695Z,55.47
2023-02-09T06:46:12.588Z,57.66
2023-02-09T06:47:14.423Z,52.09
2023-02-09T06:48:16.267Z,55.48
2023-02-09T06:49:19.011Z,55.66
2023-02-09T06:50:21.470Z,57.82
2023-02-09T06:51:23.546Z,54.45
2023-02-09T06:52:25.565Z,53.53
2023-02-09T06:53:27.577Z,53.42
2023-02-09T06:54:29.487Z,53.58
2023-02-09T06:55:32.268Z,52.69
2023-02-09T06:56:34.211Z,52.87
2023-02-09T06:57:36.405Z,51.33
2023-02-09T06:58:39.977Z,53.37
2023-02-09T06:59:42.017Z,53.71
2023-02-09T07:00:44.150Z,55.53
2023-02-09T07:01:46.219Z,53.95
2023-02-09T07:02:48.971Z,53.61
2023-02-09T07:03:51.089Z,54.20
2023-02-09T07:04:52.975Z,53.09
2023-02-09T07:05:54.818Z,53.75
2023-02-09T07:06:56.624Z,54.79
2023-02-09T07:07:58.566Z,52.62
2023-02-09T07:09:00.811Z,53.34
2023-02-09T07:10:05.276Z,54.70
2023-02-09T07:11:11.215Z,54.07
2023-02-09T07:12:13.125Z,53.22
2023-02-09T07:13:15.102Z,53.95
2023-02-09T07:14:17.130Z,56.14
2023-02-09T07:15:19.227Z,56.94
2023-02-09T07:16:21.461Z,53.68
2023-02-09T07:17:23.477Z,53.17
2023-02-09T07:18:26.552Z,53.84
2023-02-09T07:19:28.524Z,51.12
2023-02-09T07:20:30.358Z,52.65
2023-02-09T07:21:32.292Z,52.83
2023-02-09T07:22:34.884Z,51.01
2023-02-09T07:23:38.023Z,48.33
2023-02-09T07:24:40.140Z,51.02
2023-02-09T07:25:41.918Z,50.52
2023-02-09T07:26:43.713Z,52.17
2023-02-09T07:27:45.569Z,50.86
2023-02-09T07:28:47.694Z,51.12
2023-02-09T07:29:49.456Z,52.97
2023-02-09T07:30:53.249Z,50.69
2023-02-09T07:31:55.217Z,53.37
2023-02-09T07:32:57.117Z,53.57
2023-02-09T07:33:59.068Z,52.97
2023-02-09T07:35:00.858Z,52.41
2023-02-09T07:36:06.296Z,51.78
2023-02-09T07:37:08.694Z,52.32
2023-02-09T07:38:11.193Z,49.35
2023-02-09T07:39:13.429Z,49.91
2023-02-09T07:40:15.723Z,49.94
2023-02-09T07:41:21.781Z,48.81
2023-02-09T07:42:23.671Z,49.33
2023-02-09T07:43:32.119Z,50.36
2023-02-09T07:44:34.034Z,50.89
2023-02-09T07:45:35.898Z,52.74
2023-02-09T07:46:38.038Z,49.77
2023-02-09T07:47:39.975Z,49.38
2023-02-09T07:48:41.991Z,48.37
2023-02-09T07:49:43.914Z,48.62
2023-02-09T07:50:50.126Z,48.21
2023-02-09T07:51:52.116Z,47.47
2023-02-09T07:52:55.154Z,49.58
2023-02-09T07:53:59.551Z,49.51
2023-02-09T07:55:01.564Z,49.91
2023-02-09T07:56:06.077Z,49.36
2023-02-09T07:57:07.911Z,49.27
2023-02-09T07:58:10.012Z,50.28
2023-02-09T07:59:11.821Z,49.31
2023-02-09T08:00:14.818Z,48.88
2023-02-09T08:01:20.983Z,47.77
2023-02-09T08:02:35.668Z,49.36
2023-02-09T08:03:40.009Z,48.05
2023-02-09T08:04:43.710Z,47.48
2023-02-09T08:06:08.697Z,51.15
2023-02-09T08:07:10.529Z,51.21
2023-02-09T08:08:12.330Z,54.77
2023-02-09T08:09:16.836Z,51.47
2023-02-09T08:10:19.771Z,47.98
2023-02-09T08:11:29.188Z,47.92
2023-02-09T08:12:51.186Z,49.80
2023-02-09T08:13:56.819Z,53.69
2023-02-09T08:14:58.750Z,47.71
2023-02-09T08:16:05.073Z,46.87
2023-02-09T08:17:24.458Z,49.03
2023-02-09T08:18:37.989Z,50.19
2023-02-09T08:19:39.912Z,45.05
2023-02-09T08:20:45.030Z,48.88
2023-02-09T08:21:49.590Z,48.06
2023-02-09T08:22:56.093Z,46.79
2023-02-09T08:24:00.192Z,46.08
2023-02-09T08:25:04.144Z,52.00
2023-02-09T08:26:11.461Z,48.15
2023-02-09T08:27:13.517Z,44.49
2023-02-09T08:28:16.068Z,46.46
2023-02-09T08:29:18.049Z,44.33
2023-02-09T08:30:21.115Z,45.13
2023-02-09T08:31:23.540Z,46.56
2023-02-09T08:32:25.646Z,46.28
2023-02-09T08:33:27.461Z,45.30
2023-02-09T08:34:29.264Z,46.43
2023-02-09T08:35:31.782Z,42.06
2023-02-09T08:36:34.535Z,46.07
2023-02-09T08:37:36.365Z,45.03
2023-02-09T08:38:38.813Z,46.81
2023-02-09T08:39:40.754Z,44.94
2023-02-09T08:40:44.197Z,44.65
2023-02-09T08:41:46.469Z,44.41
2023-02-09T08:42:48.472Z,43.56
2023-02-09T08:43:51.771Z,46.67
2023-02-09T08:44:53.546Z,46.93
2023-02-09T08:45:55.612Z,46.72
2023-02-09T08:46:57.910Z,48.55
2023-02-09T08:48:00.095Z,46.46
2023-02-09T08:49:02.400Z,45.82
2023-02-09T08:50:05.190Z,47.75
2023-02-09T08:51:09.457Z,46.51
2023-02-09T08:52:11.329Z,45.17
2023-02-09T08:53:13.226Z,46.53
2023-02-09T08:54:16.012Z,45.91
2023-02-09T08:55:17.845Z,47.10
2023-02-09T08:56:56.197Z,49.69
2023-02-09T08:57:56.760Z,45.03
2023-02-09T08:58:57.325Z,46.36
2023-02-09T08:59:58.141Z,44.76
2023-02-09T09:01:00.039Z,46.80
2023-02-09T09:02:00.591Z,47.25
2023-02-09T09:03:05.079Z,48.68
2023-02-09T09:04:06.880Z,47.92
2023-02-09T09:05:08.185Z,49.75
2023-02-09T09:06:10.986Z,49.10
2023-02-09T09:07:11.444Z,52.58
2023-02-09T09:08:11.951Z,49.89
2023-02-09T09:09:12.993Z,49.12
2023-02-09T09:10:13.409Z,45.51
2023-02-09T09:11:14.197Z,50.73
2023-02-09T09:12:14.716Z,49.33
2023-02-09T09:13:15.343Z,49.91
2023-02-09T09:14:16.002Z,48.15
2023-02-09T09:15:16.735Z,47.53
2023-02-09T09:16:20.846Z,46.73
2023-02-09T09:17:21.743Z,47.10
2023-02-09T09:18:24.312Z,49.22
2023-02-09T09:19:25.435Z,50.78
2023-02-09T09:20:26.170Z,50.39
2023-02-09T09:21:26.726Z,48.74
2023-02-09T09:22:27.277Z,48.99
2023-02-09T09:23:28.149Z,48.24
2023-02-09T09:24:30.196Z,46.96
2023-02-09T09:25:30.676Z,50.07
2023-02-09T09:26:32.921Z,50.52
2023-02-09T09:27:34.542Z,47.34
2023-02-09T09:28:35.831Z,47.98
2023-02-09T09:29:39.492Z,47.90
2023-02-09T09:30:40.007Z,46.94
2023-02-09T09:31:41.297Z,47.27
2023-02-09T09:32:42.027Z,46.66
2023-02-09T09:33:44.070Z,48.00
2023-02-09T09:34:44.552Z,47.56
2023-02-09T09:35:45.360Z,46.35
2023-02-09T09:36:46.069Z,45.07
2023-02-09T09:37:47.982Z,47.57
2023-02-09T09:38:48.721Z,47.61
2023-02-09T09:39:49.838Z,45.79
2023-02-09T09:40:50.326Z,45.48
2023-02-09T09:41:58.726Z,45.49
2023-02-09T09:43:05.417Z,45.06
2023-02-09T09:44:28.837Z,42.39
2023-02-09T09:45:34.659Z,41.95
2023-02-09T09:46:41.251Z,41.42
2023-02-09T09:47:44.198Z,42.86
2023-02-09T09:48:52.457Z,42.88
2023-02-09T09:49:53.336Z,45.16
2023-02-09T09:51:01.724Z,44.00
2023-02-09T09:52:14.746Z,43.01
2023-02-09T09:53:34.585Z,39.57
2023-02-09T09:54:36.997Z,39.20
2023-02-09T09:55:38.493Z,39.55
2023-02-09T09:56:40.507Z,38.68
2023-02-09T09:57:45.338Z,39.62
2023-02-09T09:58:48.608Z,39.81
2023-02-09T09:59:49.068Z,41.35
2023-02-09T10:00:49.968Z,39.28
2023-02-09T10:01:52.987Z,39.62
2023-02-09T10:02:53.885Z,37.78
2023-02-09T10:04:01.419Z,37.04
2023-02-09T10:05:26.585Z,37.74
2023-02-09T10:06:33.198Z,38.22
2023-02-09T10:07:34.280Z,36.94
2023-02-09T10:08:42.215Z,38.03
2023-02-09T10:09:55.621Z,40.86
2023-02-09T10:10:56.045Z,39.35
2023-02-09T10:12:15.750Z,40.45
2023-02-09T10:13:39.770Z,35.90
2023-02-09T10:14:40.387Z,37.89
2023-02-09T10:15:41.003Z,40.30
2023-02-09T10:16:43.832Z,38.61
2023-02-09T10:17:44.438Z,39.85
2023-02-09T10:18:52.614Z,35.45
2023-02-09T10:20:39.006Z,33.34
2023-02-09T10:21:39.485Z,31.84
2023-02-09T10:22:45.040Z,30.75
2023-02-09T10:24:01.966Z,30.99
2023-02-09T10:25:23.680Z,27.73
2023-02-09T10:26:30.349Z,26.81
2023-02-09T10:27:30.786Z,26.21
2023-02-09T10:28:37.471Z,25.42
2023-02-09T10:29:38.072Z,25.39
2023-02-09T10:30:38.542Z,25.66
2023-02-09T10:31:46.902Z,25.02
2023-02-09T10:32:47.909Z,24.09
2023-02-09T10:33:55.793Z,24.82
2023-02-09T10:34:57.265Z,24.00
2023-02-09T10:36:06.326Z,24.64
2023-02-09T10:37:19.300Z,24.55
2023-02-09T10:38:24.016Z,25.15
2023-02-09T10:39:32.194Z,24.58
2023-02-09T10:40:38.565Z,25.28
2023-02-09T10:41:43.133Z,24.43
2023-02-09T10:43:06.386Z,24.25
2023-02-09T10:44:21.999Z,23.59
2023-02-09T10:45:38.583Z,23.35
2023-02-09T10:46:39.989Z,23.16
2023-02-09T10:47:40.897Z,22.67
2023-02-09T10:48:44.361Z,22.49
2023-02-09T10:50:11.013Z,21.75
2023-02-09T10:51:28.235Z,23.44
2023-02-09T10:52:37.800Z,23.51
2023-02-09T10:54:00.698Z,23.43
2023-02-09T10:55:21.569Z,22.72
2023-02-09T10:56:26.475Z,24.43
2023-02-09T10:57:38.276Z,23.52
2023-02-09T10:58:38.932Z,25.33
2023-02-09T10:59:40.731Z,24.51
2023-02-09T11:00:41.271Z,24.25
2023-02-09T11:01:44.387Z,24.45
2023-02-09T11:02:54.484Z,23.30
2023-02-09T11:04:03.561Z,22.11
2023-02-09T11:05:29.615Z,22.89
2023-02-09T11:06:51.545Z,22.42
2023-02-09T11:08:22.353Z,22.46
2023-02-09T11:09:34.550Z,21.86
2023-02-09T11:10:43.007Z,22.22
2023-02-09T11:11:44.804Z,22.91
2023-02-09T11:12:46.248Z,24.64
2023-02-09T11:13:46.833Z,25.35
2023-02-09T11:14:48.403Z,23.34
2023-02-09T11:16:22.128Z,22.26
2023-02-09T11:17:36.119Z,21.57
2023-02-09T11:18:41.969Z,21.90
2023-02-09T11:20:01.112Z,21.00
2023-02-09T11:21:33.192Z,22.39
2023-02-09T11:22:53.349Z,21.64
2023-02-09T11:23:56.581Z,20.77
2023-02-09T11:25:15.208Z,20.79
2023-02-09T11:26:50.248Z,20.98
2023-02-09T11:28:16.432Z,20.74
2023-02-09T11:29:29.368Z,21.05
2023-02-09T11:30:38.581Z,20.91
2023-02-09T11:31:57.959Z,20.72
2023-02-09T11:33:33.446Z,20.80
2023-02-09T11:34:58.669Z,20.62
2023-02-09T11:36:36.987Z,22.04
2023-02-09T11:37:43.597Z,21.14
2023-02-09T11:38:54.250Z,21.63
2023-02-09T11:40:03.898Z,22.74
2023-02-09T11:41:31.575Z,21.51
2023-02-09T11:42:45.136Z,20.76
2023-02-09T11:43:50.858Z,20.96
2023-02-09T11:44:54.755Z,20.83
2023-02-09T11:46:05.115Z,20.96
2023-02-09T11:47:10.832Z,22.08
2023-02-09T11:48:22.303Z,23.26
2023-02-09T11:49:28.809Z,22.07
2023-02-09T11:50:57.297Z,22.86
2023-02-09T11:52:00.077Z,22.12
2023-02-09T11:53:17.558Z,22.70
2023-02-09T11:54:29.450Z,22.70
2023-02-09T11:55:41.125Z,22.46
2023-02-09T11:56:49.767Z,22.08
2023-02-09T11:58:05.478Z,24.04
2023-02-09T11:59:30.437Z,22.63
2023-02-09T12:00:54.475Z,21.46
2023-02-09T12:02:22.745Z,20.95
2023-02-09T12:03:24.520Z,22.22
2023-02-09T12:04:53.816Z,21.31
2023-02-09T12:05:56.308Z,21.31
2023-02-09T12:07:19.540Z,19.74
2023-02-09T12:08:46.599Z,20.38
2023-02-09T12:10:38.939Z,21.27
2023-02-09T12:12:06.251Z,21.19
2023-02-09T12:13:06.680Z,22.11
2023-02-09T12:14:38.170Z,22.47
2023-02-09T12:15:44.930Z,26.86
2023-02-09T12:17:05.295Z,25.86
2023-02-09T12:18:14.274Z,23.71
2023-02-09T12:19:27.568Z,23.65
2023-02-09T12:20:28.519Z,24.17
2023-02-09T12:21:37.579Z,22.44
2023-02-09T12:22:57.516Z,21.01
2023-02-09T12:23:59.987Z,21.86
2023-02-09T12:25:42.134Z,19.48
2023-02-09T12:26:53.098Z,21.88
2023-02-09T12:28:13.937Z,20.61
2023-02-09T12:29:23.619Z,19.78
2023-02-09T12:30:39.354Z,19.57
2023-02-09T12:32:03.163Z,21.16
2023-02-09T12:33:21.833Z,19.68
2023-02-09T12:34:37.321Z,19.96
2023-02-09T12:35:40.746Z,20.66
2023-02-09T12:37:09.080Z,21.23
2023-02-09T12:38:16.311Z,20.85
2023-02-09T12:39:24.434Z,21.18
2023-02-09T12:40:36.185Z,22.61
2023-02-09T12:41:42.224Z,24.20
2023-02-09T12:42:45.917Z,23.76
2023-02-09T12:43:47.256Z,23.64
2023-02-09T12:44:56.798Z,21.64
2023-02-09T12:46:14.817Z,24.91
2023-02-09T12:47:41.575Z,25.23
2023-02-09T12:49:00.265Z,22.80
2023-02-09T12:50:18.662Z,21.33
2023-02-09T12:51:49.947Z,19.55
2023-02-09T12:53:21.455Z,19.00
2023-02-09T12:54:43.578Z,18.26
2023-02-09T12:56:09.002Z,18.26
2023-02-09T12:57:15.503Z,17.91
2023-02-09T12:58:44.432Z,18.56
2023-02-09T12:59:51.032Z,18.17
2023-02-09T13:00:54.580Z,19.22
2023-02-09T13:02:07.420Z,19.56
2023-02-09T13:03:13.731Z,17.92
2023-02-09T13:04:15.550Z,17.71
2023-02-09T13:05:16.002Z,16.55
2023-02-09T13:06:45.230Z,17.43
2023-02-09T13:08:10.346Z,17.49
2023-02-09T13:09:21.975Z,18.65
2023-02-09T13:10:37.154Z,16.76
2023-02-09T13:11:53.030Z,16.26
2023-02-09T13:13:03.052Z,15.95
2023-02-09T13:14:08.947Z,15.27
2023-02-09T13:15:15.847Z,15.82
2023-02-09T13:16:22.403Z,16.38
2023-02-09T13:17:50.124Z,16.29
2023-02-09T13:19:09.364Z,16.49
2023-02-09T13:20:31.687Z,15.73
2023-02-09T13:21:52.209Z,15.76
2023-02-09T13:23:13.070Z,14.46
2023-02-09T13:24:22.120Z,15.03
2023-02-09T13:25:36.694Z,14.27
2023-02-09T13:26:48.052Z,13.37
2023-02-09T13:27:49.740Z,14.23
2023-02-09T13:29:20.309Z,15.15
2023-02-09T13:30:31.603Z,14.45
2023-02-09T13:31:39.479Z,16.22
2023-02-09T13:32:55.298Z,16.27
2023-02-09T13:34:07.155Z,15.70
2023-02-09T13:35:41.699Z,16.57
2023-02-09T13:36:58.502Z,13.14
2023-02-09T13:38:07.292Z,13.90
2023-02-09T13:39:19.716Z,13.99
2023-02-09T13:40:32.896Z,15.49
2023-02-09T13:41:40.043Z,13.71
2023-02-09T13:42:58.365Z,13.51
2023-02-09T13:43:59.100Z,14.65
2023-02-09T13:44:59.596Z,15.45
2023-02-09T13:46:01.676Z,17.16
2023-02-09T13:47:07.120Z,16.13
2023-02-09T13:48:23.083Z,18.08
2023-02-09T13:49:27.338Z,23.84
2023-02-09T13:50:28.619Z,21.16
2023-02-09T13:51:29.056Z,21.05
2023-02-09T13:52:36.926Z,22.43
2023-02-09T13:53:39.340Z,20.23
2023-02-09T13:54:41.909Z,18.99
2023-02-09T13:55:47.435Z,16.68
2023-02-09T13:56:48.595Z,18.18
2023-02-09T13:57:58.193Z,15.74
2023-02-09T13:59:00.151Z,18.01
2023-02-09T14:00:15.428Z,19.13
2023-02-09T14:01:33.122Z,20.26
2023-02-09T14:02:36.277Z,17.31
2023-02-09T14:03:57.813Z,15.78
2023-02-09T14:05:04.890Z,13.67
2023-02-09T14:06:19.649Z,13.48
2023-02-09T14:07:28.078Z,13.97
2023-02-09T14:08:31.579Z,12.99
2023-02-09T14:09:49.813Z,14.26
2023-02-09T14:11:05.526Z,14.69
2023-02-09T14:12:17.577Z,13.47
2023-02-09T14:13:35.118Z,13.15
2023-02-09T14:15:23.315Z,12.84
2023-02-09T14:16:27.518Z,13.40
2023-02-09T14:17:31.885Z,14.56
2023-02-09T14:18:53.939Z,13.32
2023-02-09T14:19:57.444Z,13.81
2023-02-09T14:21:15.225Z,13.38
2023-02-09T14:22:37.299Z,12.89
2023-02-09T14:23:39.163Z,13.61
2023-02-09T14:24:43.450Z,13.63
2023-02-09T14:26:00.244Z,13.33